createdAt,value
2023-05-08T00:00:32.818Z,9.61
2023-05-08T00:01:36.081Z,9.59
2023-05-08T00:02:41.735Z,9.51
2023-05-08T00:03:45.343Z,9.47
2023-05-08T00:04:48.657Z,9.46
2023-05-08T00:05:51.622Z,9.45
2023-05-08T00:06:54.622Z,9.48
2023-05-08T00:08:01.982Z,9.51
2023-05-08T00:09:05.050Z,9.51
2023-05-08T00:10:10.019Z,9.50
2023-05-08T00:11:13.089Z,9.47
2023-05-08T00:12:16.159Z,9.49
2023-05-08T00:13:19.353Z,9.45
2023-05-08T00:14:22.445Z,9.45
2023-05-08T00:15:25.551Z,9.45
2023-05-08T00:16:28.650Z,9.44
2023-05-08T00:17:31.730Z,9.41
2023-05-08T00:18:34.879Z,9.38
2023-05-08T00:19:38.217Z,9.39
2023-05-08T00:20:42.007Z,9.39
2023-05-08T00:21:44.997Z,9.31
2023-05-08T00:22:48.038Z,9.30
2023-05-08T00:23:51.096Z,9.26
2023-05-08T00:24:53.969Z,9.24
2023-05-08T00:25:56.982Z,9.22
2023-05-08T00:27:00.059Z,9.18
2023-05-08T00:28:03.347Z,9.20
2023-05-08T00:29:06.913Z,9.17
2023-05-08T00:30:10.919Z,9.15
2023-05-08T00:31:14.920Z,9.12
2023-05-08T00:32:18.087Z,9.13
2023-05-08T00:33:21.215Z,9.12
2023-05-08T00:34:24.174Z,9.11
2023-05-08T00:35:27.092Z,9.06
2023-05-08T00:36:30.078Z,8.99
2023-05-08T00:37:32.977Z,8.94
2023-05-08T00:38:37.316Z,8.94
2023-05-08T00:39:40.270Z,8.93
2023-05-08T00:40:43.885Z,8.92
2023-05-08T00:41:46.731Z,8.94
2023-05-08T00:42:49.719Z,8.88
2023-05-08T00:43:54.783Z,8.87
2023-05-08T00:44:58.047Z,8.86
2023-05-08T00:46:02.213Z,8.82
2023-05-08T00:47:06.303Z,8.78
2023-05-08T00:48:09.357Z,8.75
2023-05-08T00:49:14.749Z,8.76
2023-05-08T00:50:18.690Z,8.73
2023-05-08T00:51:22.337Z,8.68
2023-05-08T00:52:27.954Z,8.65
2023-05-08T00:53:33.427Z,8.59
2023-05-08T00:54:38.617Z,8.55
2023-05-08T00:55:41.617Z,8.50
2023-05-08T00:56:46.034Z,8.45
2023-05-08T00:57:49.460Z,8.47
2023-05-08T00:58:52.984Z,8.43
2023-05-08T00:59:56.462Z,8.41
2023-05-08T01:01:00.177Z,8.39
2023-05-08T01:02:03.721Z,8.34
2023-05-08T01:03:07.899Z,8.33
2023-05-08T01:04:11.374Z,8.33
2023-05-08T01:05:14.312Z,8.28
2023-05-08T01:06:17.297Z,8.22
2023-05-08T01:07:21.225Z,8.16
2023-05-08T01:08:24.564Z,8.15
2023-05-08T01:09:27.427Z,8.13
2023-05-08T01:10:54.788Z,8.09
2023-05-08T01:12:24.974Z,7.99
2023-05-08T01:13:50.576Z,7.93
2023-05-08T01:15:06.856Z,7.91
2023-05-08T01:16:17.347Z,7.92
2023-05-08T01:17:43.827Z,7.93
2023-05-08T01:19:11.092Z,7.92
2023-05-08T01:20:26.375Z,7.90
2023-05-08T01:21:48.783Z,7.94
2023-05-08T01:23:09.015Z,7.86
2023-05-08T01:24:33.346Z,7.86
2023-05-08T01:26:03.888Z,7.81
2023-05-08T01:27:34.788Z,7.78
2023-05-08T01:29:05.067Z,7.77
2023-05-08T01:30:28.626Z,7.78
2023-05-08T01:31:42.813Z,7.75
2023-05-08T01:33:07.919Z,7.74
2023-05-08T01:34:20.119Z,7.66
2023-05-08T01:35:48.269Z,7.65
2023-05-08T01:37:04.841Z,7.64
2023-05-08T01:38:13.127Z,7.64
2023-05-08T01:39:36.186Z,7.63
2023-05-08T01:41:16.605Z,7.60
2023-05-08T01:43:04.446Z,7.61
2023-05-08T01:44:15.900Z,7.59
2023-05-08T01:45:28.993Z,7.53
2023-05-08T01:46:34.659Z,7.47
2023-05-08T01:47:39.093Z,7.49
2023-05-08T01:48:51.731Z,7.49
2023-05-08T01:50:12.880Z,7.48
2023-05-08T01:51:23.388Z,7.48
2023-05-08T01:52:36.525Z,7.47
2023-05-08T01:53:43.989Z,7.45
2023-05-08T01:55:11.702Z,7.44
2023-05-08T01:56:22.504Z,7.45
2023-05-08T01:57:29.654Z,7.44
2023-05-08T01:58:36.133Z,7.43
2023-05-08T01:59:41.971Z,7.38
2023-05-08T02:00:46.091Z,7.37
2023-05-08T02:01:51.809Z,7.37
2023-05-08T02:02:58.631Z,7.35
2023-05-08T02:04:04.034Z,7.34
2023-05-08T02:05:08.744Z,7.32
2023-05-08T02:06:14.707Z,7.31
2023-05-08T02:07:23.147Z,7.32
2023-05-08T02:08:29.812Z,7.33
2023-05-08T02:09:33.213Z,7.33
2023-05-08T02:10:38.339Z,7.24
2023-05-08T02:11:44.930Z,7.20
2023-05-08T02:12:49.294Z,7.19
2023-05-08T02:13:53.167Z,7.18
2023-05-08T02:14:57.165Z,7.17
2023-05-08T02:16:01.823Z,7.13
2023-05-08T02:17:06.852Z,7.08
2023-05-08T02:18:11.371Z,7.07
2023-05-08T02:19:16.844Z,7.04
2023-05-08T02:20:22.210Z,7.12
2023-05-08T02:21:27.025Z,7.12
2023-05-08T02:22:33.142Z,7.06
2023-05-08T02:23:36.419Z,6.99
2023-05-08T02:24:41.068Z,6.97
2023-05-08T02:25:47.169Z,6.96
2023-05-08T02:26:52.963Z,6.92
2023-05-08T02:27:56.945Z,6.90
2023-05-08T02:29:02.785Z,6.90
2023-05-08T02:30:07.438Z,6.85
2023-05-08T02:31:12.978Z,6.82
2023-05-08T02:32:17.664Z,6.80
2023-05-08T02:33:21.636Z,6.80
2023-05-08T02:34:25.871Z,6.79
2023-05-08T02:35:31.385Z,6.78
2023-05-08T02:36:35.863Z,6.78
2023-05-08T02:37:39.705Z,6.80
2023-05-08T02:38:47.467Z,6.81
2023-05-08T02:39:54.279Z,6.82
2023-05-08T02:41:01.608Z,6.85
2023-05-08T02:42:05.284Z,6.86
2023-05-08T02:43:08.727Z,6.83
2023-05-08T02:44:12.283Z,6.83
2023-05-08T02:45:15.444Z,6.85
2023-05-08T02:46:26.688Z,6.82
2023-05-08T02:47:40.218Z,6.76
2023-05-08T02:49:12.829Z,6.72
2023-05-08T02:50:22.251Z,6.69
2023-05-08T02:51:40.628Z,6.65
2023-05-08T02:52:49.924Z,6.62
2023-05-08T02:54:19.283Z,6.59
2023-05-08T02:55:41.470Z,6.60
2023-05-08T02:57:02.075Z,6.55
2023-05-08T02:58:32.046Z,6.49
2023-05-08T02:59:43.078Z,6.50
2023-05-08T03:00:58.778Z,6.49
2023-05-08T03:02:39.614Z,6.52
2023-05-08T03:03:45.784Z,6.48
2023-05-08T03:04:56.717Z,6.47
2023-05-08T03:06:03.214Z,6.45
2023-05-08T03:07:07.012Z,6.44
2023-05-08T03:08:18.942Z,6.44
2023-05-08T03:09:26.578Z,6.45
2023-05-08T03:10:34.233Z,6.45
2023-05-08T03:11:44.069Z,6.44
2023-05-08T03:12:50.201Z,6.42
2023-05-08T03:13:57.718Z,6.43
2023-05-08T03:15:07.027Z,6.43
2023-05-08T03:16:18.901Z,6.44
2023-05-08T03:17:25.099Z,6.47
2023-05-08T03:18:43.504Z,6.48
2023-05-08T03:19:52.662Z,6.48
2023-05-08T03:20:58.544Z,6.47
2023-05-08T03:22:04.104Z,6.49
2023-05-08T03:23:11.060Z,6.51
2023-05-08T03:24:17.063Z,6.56
2023-05-08T03:25:21.359Z,6.57
2023-05-08T03:26:24.737Z,6.59
2023-05-08T03:27:29.764Z,6.63
2023-05-08T03:28:37.026Z,6.67
2023-05-08T03:29:40.284Z,6.70
2023-05-08T03:30:43.912Z,6.73
2023-05-08T03:31:48.030Z,6.76
2023-05-08T03:32:53.308Z,6.79
2023-05-08T03:33:56.904Z,6.82
2023-05-08T03:35:00.904Z,6.83
2023-05-08T03:36:04.287Z,6.83
2023-05-08T03:37:08.085Z,6.83
2023-05-08T03:38:11.825Z,6.85
2023-05-08T03:39:14.973Z,6.88
2023-05-08T03:40:17.922Z,6.87
2023-05-08T03:41:23.207Z,6.87
2023-05-08T03:42:27.106Z,6.86
2023-05-08T03:43:31.902Z,6.88
2023-05-08T03:44:35.020Z,6.91
2023-05-08T03:45:39.943Z,6.89
2023-05-08T03:46:43.145Z,6.90
2023-05-08T03:47:48.011Z,6.92
2023-05-08T03:48:52.095Z,6.94
2023-05-08T03:49:55.916Z,6.99
2023-05-08T03:51:01.533Z,6.98
2023-05-08T03:52:04.777Z,6.96
2023-05-08T03:53:07.956Z,7.00
2023-05-08T03:54:11.202Z,7.01
2023-05-08T03:55:14.390Z,7.03
2023-05-08T03:56:17.798Z,7.06
2023-05-08T03:57:21.554Z,7.07
2023-05-08T03:58:38.082Z,7.10
2023-05-08T04:00:05.080Z,7.13
2023-05-08T04:01:48.097Z,7.15
2023-05-08T04:03:02.368Z,7.23
2023-05-08T04:04:16.574Z,7.28
2023-05-08T04:05:32.369Z,7.31
2023-05-08T04:06:49.557Z,7.34
2023-05-08T04:07:59.957Z,7.37
2023-05-08T04:09:38.575Z,7.44
2023-05-08T04:11:13.966Z,7.48
2023-05-08T04:12:22.683Z,7.53
2023-05-08T04:13:31.569Z,7.56
2023-05-08T04:14:56.724Z,7.63
2023-05-08T04:16:25.705Z,7.70
2023-05-08T04:17:41.802Z,7.73
2023-05-08T04:18:50.284Z,7.78
2023-05-08T04:20:03.787Z,7.83
2023-05-08T04:21:11.855Z,7.89
2023-05-08T04:22:16.044Z,7.91
2023-05-08T04:23:22.684Z,7.93
2023-05-08T04:24:28.466Z,7.94
2023-05-08T04:25:36.807Z,7.99
2023-05-08T04:26:40.860Z,8.04
2023-05-08T04:27:45.147Z,8.10
2023-05-08T04:28:48.561Z,8.16
2023-05-08T04:29:51.734Z,8.21
2023-05-08T04:30:57.076Z,8.26
2023-05-08T04:32:02.171Z,8.26
2023-05-08T04:33:06.450Z,8.27
2023-05-08T04:34:10.044Z,8.31
2023-05-08T04:35:16.111Z,8.32
2023-05-08T04:36:19.168Z,8.34
2023-05-08T04:37:29.700Z,8.38
2023-05-08T04:38:37.104Z,8.45
2023-05-08T04:39:41.376Z,8.48
2023-05-08T04:40:45.739Z,8.51
2023-05-08T04:41:49.152Z,8.54
2023-05-08T04:42:52.416Z,8.59
2023-05-08T04:43:55.799Z,8.61
2023-05-08T04:44:58.746Z,8.62
2023-05-08T04:46:01.918Z,8.65
2023-05-08T04:47:05.073Z,8.68
2023-05-08T04:48:08.016Z,8.72
2023-05-08T04:49:12.236Z,8.77
2023-05-08T04:50:15.261Z,8.84
2023-05-08T04:51:18.570Z,8.88
2023-05-08T04:52:22.061Z,8.91
2023-05-08T04:53:27.381Z,8.92
2023-05-08T04:54:30.419Z,8.93
2023-05-08T04:55:33.475Z,8.97
2023-05-08T04:56:36.436Z,9.02
2023-05-08T04:57:39.710Z,9.05
2023-05-08T04:58:42.680Z,9.14
2023-05-08T04:59:45.909Z,9.12
2023-05-08T05:00:49.099Z,9.08
2023-05-08T05:01:52.189Z,9.12
2023-05-08T05:02:55.085Z,9.18
2023-05-08T05:03:58.158Z,9.13
2023-05-08T05:05:01.656Z,9.15
2023-05-08T05:06:04.881Z,9.16
2023-05-08T05:07:08.102Z,9.10
2023-05-08T05:08:11.098Z,9.22
2023-05-08T05:09:14.263Z,9.23
2023-05-08T05:10:18.179Z,9.40
2023-05-08T05:11:21.717Z,9.30
2023-05-08T05:12:24.845Z,9.23
2023-05-08T05:13:28.302Z,9.20
2023-05-08T05:14:31.359Z,9.23
2023-05-08T05:15:34.443Z,9.20
2023-05-08T05:16:37.680Z,9.21
2023-05-08T05:17:41.169Z,9.25
2023-05-08T05:18:44.619Z,9.29
2023-05-08T05:19:47.752Z,9.34
2023-05-08T05:20:50.801Z,9.35
2023-05-08T05:21:54.442Z,9.40
2023-05-08T05:22:57.934Z,9.37
2023-05-08T05:24:01.045Z,9.51
2023-05-08T05:25:04.287Z,9.57
2023-05-08T05:26:07.377Z,9.46
2023-05-08T05:27:10.379Z,9.44
2023-05-08T05:28:13.491Z,9.58
2023-05-08T05:29:16.531Z,9.51
2023-05-08T05:30:19.589Z,9.46
2023-05-08T05:31:22.830Z,9.43
2023-05-08T05:32:26.333Z,9.51
2023-05-08T05:33:29.588Z,9.47
2023-05-08T05:34:32.584Z,9.49
2023-05-08T05:35:35.821Z,9.46
2023-05-08T05:36:38.790Z,9.50
2023-05-08T05:37:41.984Z,9.57
2023-05-08T05:38:45.109Z,9.58
2023-05-08T05:39:48.089Z,9.70
2023-05-08T05:40:51.008Z,9.65
2023-05-08T05:41:54.189Z,9.58
2023-05-08T05:42:57.443Z,9.61
2023-05-08T05:44:00.573Z,9.60
2023-05-08T05:45:03.930Z,9.56
2023-05-08T05:46:08.404Z,9.59
2023-05-08T05:47:11.456Z,9.73
2023-05-08T05:48:14.483Z,9.74
2023-05-08T05:49:17.460Z,9.79
2023-05-08T05:50:21.824Z,9.66
2023-05-08T05:51:25.135Z,9.66
2023-05-08T05:52:28.140Z,9.67
2023-05-08T05:53:31.207Z,9.79
2023-05-08T05:54:34.057Z,9.85
2023-05-08T05:55:37.139Z,9.83
2023-05-08T05:56:40.272Z,9.77
2023-05-08T05:57:43.274Z,9.78
2023-05-08T05:58:46.096Z,9.77
2023-05-08T05:59:49.251Z,9.83
2023-05-08T06:00:52.285Z,9.84
2023-05-08T06:01:55.312Z,9.92
2023-05-08T06:02:58.653Z,9.98
2023-05-08T06:04:01.931Z,10.05
2023-05-08T06:05:05.216Z,10.10
2023-05-08T06:06:08.500Z,10.20
2023-05-08T06:07:11.333Z,10.20
2023-05-08T06:08:16.772Z,10.20
2023-05-08T06:09:20.749Z,10.19
2023-05-08T06:10:24.290Z,10.20
2023-05-08T06:11:27.538Z,10.34
2023-05-08T06:12:30.467Z,10.35
2023-05-08T06:13:33.424Z,10.30
2023-05-08T06:14:36.511Z,10.32
2023-05-08T06:15:39.382Z,10.36
2023-05-08T06:16:42.462Z,10.36
2023-05-08T06:17:45.708Z,10.36
2023-05-08T06:18:48.781Z,10.35
2023-05-08T06:19:56.320Z,10.29
2023-05-08T06:20:59.356Z,10.26
2023-05-08T06:22:03.302Z,10.27
2023-05-08T06:23:06.720Z,10.40
2023-05-08T06:24:09.793Z,10.38
2023-05-08T06:25:13.003Z,10.32
2023-05-08T06:26:16.239Z,10.32
2023-05-08T06:27:21.149Z,10.34
2023-05-08T06:28:26.528Z,10.31
2023-05-08T06:29:29.465Z,10.36
2023-05-08T06:30:32.597Z,10.35
2023-05-08T06:31:35.993Z,10.47
2023-05-08T06:32:39.115Z,10.49
2023-05-08T06:33:42.254Z,10.48
2023-05-08T06:34:45.622Z,10.50
2023-05-08T06:35:49.110Z,10.53
2023-05-08T06:36:52.087Z,10.58
2023-05-08T06:37:55.174Z,10.66
2023-05-08T06:38:58.173Z,10.82
2023-05-08T06:40:11.629Z,10.79
2023-05-08T06:41:15.859Z,10.78
2023-05-08T06:42:18.815Z,10.81
2023-05-08T06:43:22.083Z,10.94
2023-05-08T06:44:25.126Z,10.96
2023-05-08T06:45:28.565Z,11.04
2023-05-08T06:46:31.632Z,11.05
2023-05-08T06:47:34.686Z,11.07
2023-05-08T06:48:37.781Z,11.08
2023-05-08T06:49:41.103Z,11.15
2023-05-08T06:50:44.045Z,11.16
2023-05-08T06:51:47.118Z,11.28
2023-05-08T06:52:50.379Z,11.42
2023-05-08T06:53:53.518Z,11.41
2023-05-08T06:54:56.499Z,11.48
2023-05-08T06:55:59.551Z,11.45
2023-05-08T06:57:02.652Z,11.37
2023-05-08T06:58:05.825Z,11.44
2023-05-08T06:59:09.236Z,11.50
2023-05-08T07:00:13.523Z,11.44
2023-05-08T07:01:16.703Z,11.41
2023-05-08T07:02:19.866Z,11.39
2023-05-08T07:03:22.972Z,11.40
2023-05-08T07:04:26.857Z,11.27
2023-05-08T07:05:29.944Z,11.27
2023-05-08T07:06:33.281Z,11.30
2023-05-08T07:07:36.491Z,11.42
2023-05-08T07:08:39.594Z,11.46
2023-05-08T07:09:42.634Z,11.44
2023-05-08T07:10:45.994Z,11.43
2023-05-08T07:11:48.856Z,11.45
2023-05-08T07:12:52.011Z,11.37
2023-05-08T07:13:55.132Z,11.40
2023-05-08T07:14:58.237Z,11.30
2023-05-08T07:16:01.242Z,11.27
2023-05-08T07:17:08.410Z,11.32
2023-05-08T07:18:11.503Z,11.38
2023-05-08T07:19:14.592Z,11.37
2023-05-08T07:20:17.946Z,11.32
2023-05-08T07:21:21.508Z,11.35
2023-05-08T07:22:24.700Z,11.43
2023-05-08T07:23:27.879Z,11.47
2023-05-08T07:24:31.484Z,11.59
2023-05-08T07:25:34.519Z,11.76
2023-05-08T07:26:38.015Z,11.83
2023-05-08T07:27:41.067Z,11.85
2023-05-08T07:28:44.100Z,11.92
2023-05-08T07:29:47.195Z,11.99
2023-05-08T07:30:50.201Z,12.13
2023-05-08T07:31:53.490Z,12.18
2023-05-08T07:32:57.615Z,12.17
2023-05-08T07:34:01.183Z,12.07
2023-05-08T07:35:06.855Z,12.03
2023-05-08T07:36:11.724Z,12.15
2023-05-08T07:37:14.741Z,12.22
2023-05-08T07:38:17.792Z,12.20
2023-05-08T07:39:20.752Z,12.25
2023-05-08T07:40:24.195Z,12.21
2023-05-08T07:41:27.372Z,12.11
2023-05-08T07:42:30.496Z,12.07
2023-05-08T07:43:33.498Z,12.05
2023-05-08T07:44:43.625Z,12.10
2023-05-08T07:45:50.792Z,12.13
2023-05-08T07:46:53.696Z,12.24
2023-05-08T07:47:58.619Z,12.34
2023-05-08T07:49:01.843Z,12.42
2023-05-08T07:50:05.946Z,12.53
2023-05-08T07:51:11.813Z,12.60
2023-05-08T07:52:14.875Z,12.67
2023-05-08T07:53:18.091Z,12.72
2023-05-08T07:54:21.177Z,12.86
2023-05-08T07:55:24.150Z,13.12
2023-05-08T07:56:28.782Z,13.19
2023-05-08T07:57:39.160Z,13.31
2023-05-08T07:58:42.970Z,13.46
2023-05-08T07:59:45.837Z,13.60
2023-05-08T08:00:48.829Z,13.68
2023-05-08T08:01:52.735Z,13.84
2023-05-08T08:02:56.497Z,13.96
2023-05-08T08:03:59.515Z,13.97
2023-05-08T08:05:02.747Z,14.08
2023-05-08T08:06:06.005Z,14.24
2023-05-08T08:07:09.098Z,14.26
2023-05-08T08:08:12.078Z,14.31
2023-05-08T08:09:17.523Z,14.38
2023-05-08T08:10:20.679Z,14.40
2023-05-08T08:11:24.032Z,14.44
2023-05-08T08:12:28.134Z,14.55
2023-05-08T08:13:31.161Z,14.60
2023-05-08T08:14:34.543Z,14.62
2023-05-08T08:15:37.447Z,14.50
2023-05-08T08:16:40.963Z,14.48
2023-05-08T08:17:44.017Z,14.45
2023-05-08T08:18:47.036Z,14.47
2023-05-08T08:19:50.151Z,14.50
2023-05-08T08:20:53.217Z,14.52
2023-05-08T08:21:56.225Z,14.66
2023-05-08T08:22:59.492Z,14.62
2023-05-08T08:24:02.892Z,14.71
2023-05-08T08:25:06.303Z,14.82
2023-05-08T08:26:09.379Z,14.93
2023-05-08T08:27:13.581Z,15.05
2023-05-08T08:28:18.321Z,15.13
2023-05-08T08:29:21.501Z,15.24
2023-05-08T08:30:25.040Z,15.35
2023-05-08T08:31:28.230Z,15.35
2023-05-08T08:32:31.289Z,15.38
2023-05-08T08:33:34.618Z,15.37
2023-05-08T08:34:37.786Z,15.35
2023-05-08T08:35:40.938Z,15.34
2023-05-08T08:36:44.226Z,15.34
2023-05-08T08:37:47.078Z,15.25
2023-05-08T08:38:50.011Z,15.15
2023-05-08T08:39:53.596Z,15.15
2023-05-08T08:40:56.630Z,15.16
2023-05-08T08:41:59.918Z,15.10
2023-05-08T08:43:02.798Z,15.18
2023-05-08T08:44:06.216Z,15.18
2023-05-08T08:45:10.479Z,15.30
2023-05-08T08:46:18.389Z,15.43
2023-05-08T08:47:28.087Z,15.53
2023-05-08T08:48:31.556Z,15.53
2023-05-08T08:49:43.840Z,15.45
2023-05-08T08:50:49.105Z,15.48
2023-05-08T08:51:56.634Z,15.51
2023-05-08T08:53:08.859Z,15.51
2023-05-08T08:54:17.850Z,15.47
2023-05-08T08:55:23.627Z,15.40
2023-05-08T08:56:28.142Z,15.40
2023-05-08T08:57:37.264Z,15.49
2023-05-08T08:58:51.431Z,15.71
2023-05-08T08:59:56.436Z,15.92
2023-05-08T09:01:01.291Z,16.09
2023-05-08T09:02:10.486Z,16.17
2023-05-08T09:03:14.917Z,16.20
2023-05-08T09:04:18.452Z,16.28
2023-05-08T09:05:24.037Z,16.41
2023-05-08T09:06:27.916Z,16.50
2023-05-08T09:07:31.231Z,16.59
2023-05-08T09:08:35.609Z,16.65
2023-05-08T09:09:44.983Z,16.62
2023-05-08T09:10:48.151Z,16.69
2023-05-08T09:11:52.725Z,16.73
2023-05-08T09:12:55.815Z,16.73
2023-05-08T09:13:59.533Z,16.66
2023-05-08T09:15:02.619Z,16.66
2023-05-08T09:16:06.198Z,16.69
2023-05-08T09:17:09.848Z,16.70
2023-05-08T09:18:12.904Z,16.77
2023-05-08T09:19:16.924Z,16.72
2023-05-08T09:20:20.211Z,16.72
2023-05-08T09:21:23.637Z,16.86
2023-05-08T09:22:26.949Z,16.85
2023-05-08T09:23:30.401Z,16.94
2023-05-08T09:25:09.732Z,16.94
2023-05-08T09:26:27.756Z,17.04
2023-05-08T09:27:32.803Z,17.17
2023-05-08T09:28:35.913Z,17.22
2023-05-08T09:29:39.381Z,17.33
2023-05-08T09:30:56.589Z,17.21
2023-05-08T09:31:59.622Z,17.19
2023-05-08T09:33:03.773Z,17.07
2023-05-08T09:34:11.662Z,17.04
2023-05-08T09:35:15.117Z,17.02
2023-05-08T09:36:32.332Z,17.16
2023-05-08T09:37:39.630Z,17.35
2023-05-08T09:38:44.312Z,17.39
2023-05-08T09:39:48.110Z,17.45
2023-05-08T09:41:07.588Z,17.45
2023-05-08T09:42:10.874Z,17.54
2023-05-08T09:43:16.840Z,17.44
2023-05-08T09:44:19.939Z,17.26
2023-05-08T09:45:31.752Z,17.07
2023-05-08T09:46:35.298Z,17.09
2023-05-08T09:47:39.890Z,17.19
2023-05-08T09:48:43.197Z,17.30
2023-05-08T09:50:00.523Z,17.49
2023-05-08T09:51:07.385Z,17.61
2023-05-08T09:52:16.296Z,17.60
2023-05-08T09:53:19.723Z,17.48
2023-05-08T09:54:23.080Z,17.55
2023-05-08T09:55:26.273Z,17.51
2023-05-08T09:56:39.859Z,17.44
2023-05-08T09:57:59.949Z,17.40
2023-05-08T09:59:22.641Z,17.21
2023-05-08T10:00:28.429Z,17.19
2023-05-08T10:01:36.776Z,17.27
2023-05-08T10:02:42.690Z,17.28
2023-05-08T10:03:50.347Z,17.21
2023-05-08T10:04:53.409Z,17.24
2023-05-08T10:06:12.298Z,17.27
2023-05-08T10:07:15.418Z,17.41
2023-05-08T10:08:23.638Z,17.56
2023-05-08T10:09:30.797Z,17.56
2023-05-08T10:10:43.002Z,17.53
2023-05-08T10:11:55.858Z,17.49
2023-05-08T10:12:59.465Z,17.51
2023-05-08T10:14:02.658Z,17.66
2023-05-08T10:15:06.141Z,17.73
2023-05-08T10:16:15.595Z,17.74
2023-05-08T10:17:26.226Z,17.83
2023-05-08T10:18:36.205Z,17.93
2023-05-08T10:19:46.453Z,17.98
2023-05-08T10:20:51.296Z,17.94
2023-05-08T10:21:56.544Z,17.94
2023-05-08T10:23:00.353Z,17.93
2023-05-08T10:24:12.806Z,17.81
2023-05-08T10:25:18.383Z,17.83
2023-05-08T10:26:28.205Z,17.90
2023-05-08T10:27:39.538Z,17.96
2023-05-08T10:28:59.270Z,17.88
2023-05-08T10:30:07.094Z,17.77
2023-05-08T10:31:14.628Z,17.69
2023-05-08T10:32:20.326Z,17.62
2023-05-08T10:33:31.361Z,17.71
2023-05-08T10:34:35.626Z,17.78
2023-05-08T10:35:39.199Z,17.81
2023-05-08T10:36:42.789Z,17.97
2023-05-08T10:37:48.075Z,18.05
2023-05-08T10:38:52.208Z,18.13
2023-05-08T10:39:57.706Z,18.20
2023-05-08T10:41:01.545Z,18.13
2023-05-08T10:42:05.381Z,18.04
2023-05-08T10:43:10.480Z,17.98
2023-05-08T10:44:14.171Z,17.98
2023-05-08T10:45:17.759Z,17.96
2023-05-08T10:46:49.241Z,17.85
2023-05-08T10:48:09.695Z,17.80
2023-05-08T10:49:54.701Z,17.80
2023-05-08T10:51:06.574Z,17.93
2023-05-08T10:52:21.489Z,18.11
2023-05-08T10:53:46.757Z,18.19
2023-05-08T10:55:20.158Z,18.25
2023-05-08T10:56:27.717Z,18.25
2023-05-08T10:57:32.047Z,18.24
2023-05-08T10:58:37.988Z,18.23
2023-05-08T10:59:46.141Z,18.29
2023-05-08T11:00:58.005Z,18.37
2023-05-08T11:02:07.532Z,18.58
2023-05-08T11:03:23.605Z,18.75
2023-05-08T11:04:30.786Z,18.83
2023-05-08T11:05:49.456Z,18.80
2023-05-08T11:06:55.624Z,18.74
2023-05-08T11:08:01.638Z,18.63
2023-05-08T11:09:05.281Z,18.49
2023-05-08T11:10:17.237Z,18.50
2023-05-08T11:11:33.690Z,18.58
2023-05-08T11:12:38.286Z,18.67
2023-05-08T11:13:43.172Z,18.82
2023-05-08T11:15:00.636Z,18.94
2023-05-08T11:16:06.950Z,19.01
2023-05-08T11:17:11.301Z,18.98
2023-05-08T11:18:17.870Z,19.04
2023-05-08T11:19:23.035Z,19.15
2023-05-08T11:20:40.397Z,19.06
2023-05-08T11:22:11.802Z,19.16
2023-05-08T11:23:29.346Z,19.31
2023-05-08T11:24:39.225Z,19.34
2023-05-08T11:25:43.838Z,19.34
2023-05-08T11:26:49.694Z,19.49
2023-05-08T11:27:52.599Z,19.58
2023-05-08T11:28:59.144Z,19.68
2023-05-08T11:30:21.279Z,19.65
2023-05-08T11:31:24.960Z,19.72
2023-05-08T11:33:13.811Z,19.80
2023-05-08T11:34:45.680Z,19.76
2023-05-08T11:35:48.687Z,19.85
2023-05-08T11:37:03.884Z,19.72
2023-05-08T11:38:24.353Z,19.63
2023-05-08T11:39:27.420Z,19.53
2023-05-08T11:40:56.995Z,19.50
2023-05-08T11:42:27.681Z,19.45
2023-05-08T11:43:33.551Z,19.41
2023-05-08T11:44:37.657Z,19.43
2023-05-08T11:45:43.084Z,19.34
2023-05-08T11:46:56.496Z,19.35
2023-05-08T11:48:02.217Z,19.43
2023-05-08T11:49:05.678Z,19.52
2023-05-08T11:50:11.353Z,19.52
2023-05-08T11:51:19.601Z,19.52
2023-05-08T11:52:22.649Z,19.49
2023-05-08T11:53:25.993Z,19.43
2023-05-08T11:54:31.996Z,19.41
2023-05-08T11:55:35.331Z,19.40
2023-05-08T11:56:39.396Z,19.44
2023-05-08T11:57:42.846Z,19.39
2023-05-08T11:58:45.905Z,19.42
2023-05-08T11:59:52.255Z,19.44
2023-05-08T12:00:55.719Z,19.53
2023-05-08T12:02:07.898Z,19.58
2023-05-08T12:03:14.159Z,19.62
2023-05-08T12:04:17.634Z,19.63
2023-05-08T12:05:27.863Z,19.61
2023-05-08T12:06:34.210Z,19.61
2023-05-08T12:07:45.153Z,19.58
2023-05-08T12:08:48.478Z,19.50
2023-05-08T12:09:51.889Z,19.47
2023-05-08T12:10:57.125Z,19.42
2023-05-08T12:12:00.146Z,19.42
2023-05-08T12:13:03.622Z,19.42
2023-05-08T12:14:06.781Z,19.47
2023-05-08T12:15:14.325Z,19.66
2023-05-08T12:16:17.426Z,19.85
2023-05-08T12:17:20.684Z,19.95
2023-05-08T12:18:26.492Z,19.99
2023-05-08T12:19:29.988Z,20.00
2023-05-08T12:20:34.019Z,20.11
2023-05-08T12:21:37.078Z,20.28
2023-05-08T12:22:50.405Z,20.28
2023-05-08T12:23:55.852Z,20.35
2023-05-08T12:24:58.846Z,20.43
2023-05-08T12:26:02.425Z,20.45
2023-05-08T12:27:05.642Z,20.52
2023-05-08T12:28:10.092Z,20.26
2023-05-08T12:29:13.020Z,20.14
2023-05-08T12:30:16.971Z,20.23
2023-05-08T12:31:20.879Z,20.31
2023-05-08T12:32:26.186Z,20.45
2023-05-08T12:33:30.993Z,20.48
2023-05-08T12:34:34.268Z,20.50
2023-05-08T12:35:39.093Z,20.48
2023-05-08T12:36:42.081Z,20.45
2023-05-08T12:37:45.655Z,20.33
2023-05-08T12:38:48.724Z,20.29
2023-05-08T12:39:51.969Z,20.16
2023-05-08T12:40:57.975Z,20.25
2023-05-08T12:42:01.571Z,20.40
2023-05-08T12:43:04.688Z,20.43
2023-05-08T12:44:17.740Z,20.47
2023-05-08T12:45:33.702Z,20.60
2023-05-08T12:46:37.055Z,20.51
2023-05-08T12:47:40.298Z,20.69
2023-05-08T12:48:43.278Z,20.63
2023-05-08T12:49:49.516Z,20.44
2023-05-08T12:50:53.062Z,20.33
2023-05-08T12:52:02.678Z,20.22
2023-05-08T12:53:08.763Z,20.12
2023-05-08T12:54:11.826Z,20.20
2023-05-08T12:55:31.621Z,20.18
2023-05-08T12:56:34.636Z,20.18
2023-05-08T12:57:37.761Z,20.20
2023-05-08T12:58:40.824Z,20.19
2023-05-08T12:59:44.905Z,20.29
2023-05-08T13:00:50.324Z,20.21
2023-05-08T13:01:53.301Z,20.14
2023-05-08T13:02:56.671Z,20.10
2023-05-08T13:04:03.198Z,20.01
2023-05-08T13:05:07.150Z,20.09
2023-05-08T13:06:22.938Z,20.09
2023-05-08T13:07:32.965Z,20.13
2023-05-08T13:08:39.075Z,20.06
2023-05-08T13:09:57.374Z,19.87
2023-05-08T13:11:01.587Z,19.97
2023-05-08T13:12:07.232Z,20.04
2023-05-08T13:13:10.294Z,20.13
2023-05-08T13:14:13.530Z,20.27
2023-05-08T13:15:16.686Z,20.15
2023-05-08T13:16:19.946Z,20.10
2023-05-08T13:17:23.491Z,20.20
2023-05-08T13:18:27.903Z,20.18
2023-05-08T13:19:31.252Z,20.15
2023-05-08T13:20:38.425Z,20.22
2023-05-08T13:21:41.870Z,20.22
2023-05-08T13:22:45.100Z,20.22
2023-05-08T13:23:48.185Z,20.29
2023-05-08T13:24:51.831Z,20.40
2023-05-08T13:25:55.987Z,20.29
2023-05-08T13:26:59.091Z,20.38
2023-05-08T13:28:02.323Z,20.36
2023-05-08T13:29:05.292Z,20.40
2023-05-08T13:30:09.016Z,20.29
2023-05-08T13:31:11.954Z,20.37
2023-05-08T13:32:15.101Z,20.28
2023-05-08T13:33:18.600Z,20.24
2023-05-08T13:34:21.871Z,20.23
2023-05-08T13:35:25.596Z,20.18
2023-05-08T13:36:28.604Z,20.23
2023-05-08T13:37:32.123Z,20.14
2023-05-08T13:38:35.580Z,20.09
2023-05-08T13:39:38.573Z,20.11
2023-05-08T13:40:41.784Z,20.11
2023-05-08T13:41:44.649Z,20.06
2023-05-08T13:42:47.967Z,20.08
2023-05-08T13:43:51.034Z,20.08
2023-05-08T13:44:54.104Z,19.90
2023-05-08T13:45:57.724Z,19.98
2023-05-08T13:47:00.869Z,19.97
2023-05-08T13:48:04.424Z,19.79
2023-05-08T13:49:07.453Z,19.75
2023-05-08T13:50:11.815Z,19.68
2023-05-08T13:51:14.972Z,19.64
2023-05-08T13:52:18.101Z,19.75
2023-05-08T13:53:21.142Z,19.75
2023-05-08T13:54:24.019Z,19.77
2023-05-08T13:55:26.757Z,19.75
2023-05-08T13:56:29.561Z,19.76
2023-05-08T13:57:32.481Z,19.78
2023-05-08T13:58:35.323Z,19.95
2023-05-08T13:59:38.037Z,19.99
2023-05-08T14:00:40.811Z,19.94
2023-05-08T14:01:44.038Z,19.96
2023-05-08T14:02:47.865Z,19.81
2023-05-08T14:03:52.079Z,19.78
2023-05-08T14:04:55.066Z,19.76
2023-05-08T14:05:57.776Z,19.69
2023-05-08T14:07:01.380Z,19.61
2023-05-08T14:08:04.186Z,19.45
2023-05-08T14:09:06.994Z,19.44
2023-05-08T14:10:10.557Z,19.55
2023-05-08T14:11:13.376Z,19.51
2023-05-08T14:12:16.824Z,19.39
2023-05-08T14:13:19.718Z,19.34
2023-05-08T14:14:22.723Z,19.31
2023-05-08T14:15:36.594Z,19.26
2023-05-08T14:16:40.076Z,19.32
2023-05-08T14:17:43.272Z,19.45
2023-05-08T14:18:46.300Z,19.47
2023-05-08T14:19:49.210Z,19.40
2023-05-08T14:20:57.108Z,19.47
2023-05-08T14:22:00.522Z,19.55
2023-05-08T14:23:03.295Z,19.59
2023-05-08T14:24:06.486Z,19.69
2023-05-08T14:25:09.766Z,19.70
2023-05-08T14:26:12.459Z,19.63
2023-05-08T14:27:17.268Z,19.61
2023-05-08T14:28:20.228Z,19.54
2023-05-08T14:29:23.360Z,19.52